Time;durP1;ratioP1;P1;durP2;ratioP2;P2;SDS_P1;SDS_P2;PMS_P1;PMS_P2;Temp;Humidity;BMP_temperature;BMP_pressure;BME280_temperature;BME280_humidity;BME280_pressure;Samples;Min_cycle;Max_cycle;Signal;HPM_P1;HPM_P2
2023/10/25 00:03:14;;;;;;;4.97;1.70;;;;;;;8.08;76.50;99211.44;21086471;28;20295;-78
2023/10/25 00:13:16;;;;;;;2.40;1.40;;;;;;;8.04;78.21;99196.50;21051335;28;20199;-78
2023/10/25 00:23:20;;;;;;;3.93;1.60;;;;;;;7.99;76.38;99203.13;21068764;28;20514;-78
2023/10/25 00:33:22;;;;;;;1.77;1.20;;;;;;;7.95;75.77;99207.75;21067982;28;20194;-79
2023/10/25 00:43:25;;;;;;;3.77;1.30;;;;;;;7.68;76.48;99215.81;21074346;28;20573;-78
2023/10/25 00:53:28;;;;;;;3.80;1.60;;;;;;;7.95;75.15;99202.13;21069855;28;20222;-78
2023/10/25 01:03:31;;;;;;;3.93;1.27;;;;;;;8.22;73.89;99197.19;21046843;28;20499;-78
2023/10/25 01:13:33;;;;;;;2.67;1.60;;;;;;;7.90;75.42;99193.13;21062586;28;20283;-78
2023/10/25 01:23:36;;;;;;;1.37;1.27;;;;;;;7.99;75.62;99203.13;21066562;28;20351;-78
2023/10/25 01:33:37;;;;;;;4.60;1.00;;;;;;;7.90;74.52;99190.31;21076253;28;20218;-78
2023/10/25 01:43:41;;;;;;;2.50;1.40;;;;;;;8.05;73.41;99172.09;21085584;28;20229;-78
2023/10/25 01:53:42;;;;;;;2.67;1.03;;;;;;;7.98;73.62;99176.25;21056170;28;20266;-78
2023/10/25 02:03:45;;;;;;;2.97;1.13;;;;;;;7.71;74.61;99165.56;21094240;28;20215;-79
2023/10/25 02:13:47;;;;;;;2.70;1.00;;;;;;;7.90;74.67;99151.13;21091361;28;20202;-78
2023/10/25 02:23:50;;;;;;;2.57;1.13;;;;;;;8.06;75.24;99142.94;21059444;28;20222;-78
2023/10/25 02:33:52;;;;;;;3.10;0.93;;;;;;;7.55;75.43;99142.09;21078199;28;20219;-78
2023/10/25 02:43:56;;;;;;;2.80;0.83;;;;;;;7.73;75.10;99138.03;21061558;28;20317;-78
2023/10/25 02:53:58;;;;;;;5.83;0.97;;;;;;;7.88;75.66;99115.03;21068960;28;20211;-78
2023/10/25 03:04:01;;;;;;;1.87;0.93;;;;;;;7.82;74.98;99112.75;21069315;28;20305;-78
2023/10/25 03:14:02;;;;;;;4.80;1.30;;;;;;;7.03;76.85;99100.34;21069218;28;20307;-79
2023/10/25 03:24:07;;;;;;;2.80;1.13;;;;;;;7.48;76.10;99091.44;21073329;28;20310;-79
2023/10/25 03:34:09;;;;;;;6.17;0.80;;;;;;;7.21;77.26;99087.91;21062633;28;20191;-78
2023/10/25 03:44:12;;;;;;;3.70;0.80;;;;;;;7.70;74.53;99074.31;21075610;28;20272;-78
2023/10/25 03:54:14;;;;;;;4.27;1.30;;;;;;;7.32;75.36;99055.59;21067342;28;20310;-78
2023/10/25 04:04:17;;;;;;;1.97;1.20;;;;;;;7.37;75.62;99053.75;21055815;28;20226;-79
2023/10/25 04:14:21;;;;;;;4.73;1.17;;;;;;;7.16;76.78;99054.53;21067778;28;20196;-78
2023/10/25 04:24:25;;;;;;;1.97;1.37;;;;;;;7.19;77.46;99039.88;21051345;28;20309;-78
2023/10/25 04:34:27;;;;;;;2.57;1.60;;;;;;;7.21;76.80;99029.16;21059637;28;20205;-79
2023/10/25 04:44:33;;;;;;;2.57;1.33;;;;;;;7.01;77.95;99035.53;21025896;28;20332;-80
2023/10/25 04:54:35;;;;;;;3.20;1.87;;;;;;;6.87;77.90;99034.94;21048510;28;20305;-77
2023/10/25 05:04:39;;;;;;;4.63;2.47;;;;;;;7.16;77.75;99020.94;21039966;28;20256;-78
2023/10/25 05:14:41;;;;;;;3.83;2.13;;;;;;;6.88;78.26;99005.84;21028207;28;20222;-78
2023/10/25 05:24:45;;;;;;;2.63;2.17;;;;;;;7.07;78.05;99005.38;21042722;28;20225;-77
2023/10/25 05:34:48;;;;;;;4.80;2.53;;;;;;;7.18;76.63;98990.66;21002532;28;20746;-78
2023/10/25 05:44:53;;;;;;;5.90;3.30;;;;;;;7.23;77.31;98978.47;21037218;28;20868;-78
2023/10/25 05:54:56;;;;;;;5.50;3.73;;;;;;;7.57;74.70;98985.81;21050082;28;20222;-80
2023/10/25 06:05:01;;;;;;;4.70;3.10;;;;;;;7.51;75.89;98982.41;21059500;28;20249;-82
2023/10/25 06:15:05;;;;;;;3.97;2.93;;;;;;;7.79;74.94;98973.44;21048126;28;20267;-77
2023/10/25 06:25:10;;;;;;;4.63;3.00;;;;;;;7.75;76.35;98953.72;21044186;28;21257;-77
2023/10/25 06:35:11;;;;;;;5.13;2.77;;;;;;;8.15;74.82;98942.75;21039138;28;20317;-77
2023/10/25 06:45:15;;;;;;;4.37;2.37;;;;;;;8.16;74.28;98929.56;21019817;28;20314;-77
2023/10/25 06:55:18;;;;;;;4.90;2.40;;;;;;;7.94;74.69;98922.38;20998538;28;20262;-78
2023/10/25 07:05:23;;;;;;;5.03;2.60;;;;;;;8.06;74.72;98899.19;20998945;28;20222;-78
2023/10/25 07:15:25;;;;;;;2.53;2.03;;;;;;;7.81;76.55;98889.88;20978070;28;20257;-78
2023/10/25 07:25:30;;;;;;;5.47;1.60;;;;;;;7.98;75.21;98879.31;20978727;28;20261;-86
2023/10/25 07:35:31;;;;;;;2.40;0.90;;;;;;;8.53;73.18;98851.94;20991892;28;20245;-89
2023/10/25 07:45:35;;;;;;;3.33;1.30;;;;;;;8.69;72.25;98845.28;21011969;28;20310;-90
2023/10/25 07:55:41;;;;;;;2.88;1.00;;;;;;;8.81;71.87;98826.81;21006968;28;20560;-88
2023/10/25 08:05:44;;;;;;;3.23;0.60;;;;;;;9.31;69.92;98806.66;21047876;28;20226;-90
2023/10/25 08:15:46;;;;;;;3.00;0.87;;;;;;;9.80;67.04;98790.38;20983888;28;20525;-83
2023/10/25 08:25:50;;;;;;;3.97;0.73;;;;;;;10.33;65.41;98774.84;20980645;28;20586;-90
2023/10/25 08:36:01;;;;;;;3.77;0.67;;;;;;;9.88;68.12;98780.94;20970989;28;20614;-84
2023/10/25 08:46:05;;;;;;;5.13;0.83;;;;;;;9.67;67.64;98769.16;21057420;28;20692;-83
2023/10/25 08:56:06;;;;;;;2.30;0.70;;;;;;;9.72;68.74;98769.72;21076855;28;20222;-89
2023/10/25 09:06:11;;;;;;;1.38;0.52;;;;;;;9.46;67.99;98754.53;21077559;28;20314;-91
2023/10/25 09:16:16;;;;;;;1.53;0.40;;;;;;;10.34;65.22;98725.06;21097985;28;20200;-91
2023/10/25 09:26:19;;;;;;;1.70;0.40;;;;;;;10.13;64.56;98709.34;21080696;28;20271;-91
2023/10/25 09:36:22;;;;;;;3.07;0.40;;;;;;;10.73;62.97;98704.28;21093991;28;20347;-79
2023/10/25 09:46:29;;;;;;;1.63;0.50;;;;;;;10.15;65.81;98687.28;21041896;28;20237;-80
2023/10/25 09:56:31;;;;;;;0.20;0.20;;;;;;;10.36;64.76;98660.84;21058590;28;20227;-87
2023/10/25 10:06:39;;;;;;;1.15;0.60;;;;;;;10.25;64.72;98643.75;21071124;28;20530;-90
2023/10/25 10:16:41;;;;;;;1.33;0.37;;;;;;;9.88;66.56;98632.03;21083243;28;20200;-92
2023/10/25 10:26:51;;;;;;;1.77;0.43;;;;;;;9.78;66.14;98618.56;21123045;28;20227;-89
2023/10/25 10:37:06;;;;;;;1.20;0.30;;;;;;;10.36;66.47;98610.22;21079891;28;20205;-90
2023/10/25 10:47:11;;;;;;;1.08;0.38;;;;;;;9.43;71.53;98593.22;21082795;28;20256;-91
2023/10/25 10:57:16;;;;;;;0.90;0.40;;;;;;;9.77;74.16;98560.75;21105758;28;20309;-91
2023/10/25 11:07:19;;;;;;;1.63;0.40;;;;;;;10.05;73.33;98549.31;21114600;28;20575;-79
2023/10/25 11:17:21;;;;;;;0.82;0.45;;;;;;;9.88;75.23;98527.28;21106537;28;20218;-81
2023/10/25 11:27:30;;;;;;;3.70;1.40;;;;;;;9.77;77.50;98515.81;21106808;28;20261;-84
2023/10/25 11:37:42;;;;;;;3.90;1.33;;;;;;;9.69;78.86;98492.38;21102632;28;20286;-82
2023/10/25 11:47:47;;;;;;;1.90;1.05;;;;;;;9.91;78.37;98471.16;21082025;28;20234;-84
2023/10/25 11:57:49;;;;;;;4.23;1.10;;;;;;;10.04;78.60;98449.34;21098993;28;20190;-90
2023/10/25 12:07:53;;;;;;;2.30;0.80;;;;;;;10.02;78.02;98437.66;21081304;28;20305;-90
2023/10/25 12:17:55;;;;;;;5.30;1.00;;;;;;;9.78;80.29;98417.13;21086685;28;20197;-88
2023/10/25 12:27:59;;;;;;;1.83;1.60;;;;;;;9.61;80.08;98405.50;21076825;28;20250;-88
2023/10/25 12:38:06;;;;;;;2.58;1.17;;;;;;;9.48;80.98;98390.81;21080406;28;20591;-87
2023/10/25 12:48:09;;;;;;;3.87;1.33;;;;;;;9.42;80.35;98370.63;21006820;28;20226;-87
2023/10/25 12:58:11;;;;;;;3.30;1.27;;;;;;;9.57;79.65;98357.69;20975167;28;20619;-78
2023/10/25 13:08:15;;;;;;;1.60;1.17;;;;;;;9.39;81.07;98348.06;20991017;28;20268;-78
2023/10/25 13:18:16;;;;;;;1.57;1.20;;;;;;;9.55;79.44;98328.34;20987254;28;20682;-79
2023/10/25 13:28:21;;;;;;;1.97;1.70;;;;;;;9.37;79.85;98311.13;20988379;28;20221;-79
2023/10/25 13:38:23;;;;;;;3.80;1.73;;;;;;;9.74;80.36;98295.47;20978167;28;20290;-80
2023/10/25 13:48:26;;;;;;;2.43;1.70;;;;;;;9.49;81.77;98280.09;21073391;28;20309;-84
2023/10/25 13:58:30;;;;;;;3.03;1.70;;;;;;;9.94;78.68;98273.75;21077693;28;20202;-80
2023/10/25 14:08:33;;;;;;;2.28;1.70;;;;;;;9.85;79.69;98270.38;21082055;28;20522;-80
2023/10/25 14:18:35;;;;;;;1.73;1.47;;;;;;;9.41;81.13;98262.31;21076117;28;20237;-79
2023/10/25 14:28:39;;;;;;;1.88;1.50;;;;;;;9.60;80.90;98246.63;21084737;28;20233;-87
2023/10/25 14:38:41;;;;;;;2.95;1.83;;;;;;;10.05;79.24;98232.59;21098341;28;20219;-80
2023/10/25 14:48:45;;;;;;;3.73;2.63;;;;;;;9.59;81.05;98216.94;21070177;28;20558;-79
2023/10/25 14:58:47;;;;;;;4.20;2.90;;;;;;;9.81;80.08;98195.66;21063799;28;20591;-79
2023/10/25 15:08:50;;;;;;;4.78;3.42;;;;;;;9.16;82.69;98176.03;21063225;28;20507;-85
2023/10/25 15:18:52;;;;;;;4.77;3.37;;;;;;;9.57;82.02;98175.19;21068279;28;20282;-85
2023/10/25 15:28:55;;;;;;;4.60;2.90;;;;;;;9.50;82.70;98157.38;21060115;28;20214;-80
2023/10/25 15:38:57;;;;;;;4.00;3.08;;;;;;;9.68;80.73;98136.88;21048881;28;20407;-80
2023/10/25 15:49:01;;;;;;;4.00;3.08;;;;;;;9.83;80.45;98135.13;20992007;28;20222;-80
2023/10/25 15:59:05;;;;;;;4.60;2.40;;;;;;;9.85;80.13;98135.56;20991462;28;20194;-80
2023/10/25 16:09:08;;;;;;;3.77;2.77;;;;;;;9.70;79.94;98128.09;20983693;28;20627;-80
2023/10/25 16:19:12;;;;;;;2.95;2.65;;;;;;;9.72;80.52;98115.28;20994080;28;20522;-79
2023/10/25 16:29:15;;;;;;;4.43;3.10;;;;;;;9.37;81.48;98101.44;20994098;28;20306;-80
2023/10/25 16:39:17;;;;;;;7.10;3.13;;;;;;;9.69;80.84;98099.19;21027282;28;20225;-79
2023/10/25 16:49:20;;;;;;;5.00;3.40;;;;;;;9.46;82.62;98104.00;20994915;28;20223;-79
2023/10/25 16:59:22;;;;;;;5.27;4.40;;;;;;;9.71;82.63;98104.44;21016591;28;20226;-79
2023/10/25 17:09:25;;;;;;;7.13;5.43;;;;;;;9.11;84.24;98106.97;21018510;28;20225;-79
2023/10/25 17:19:27;;;;;;;9.40;7.20;;;;;;;10.07;80.40;98100.97;21014604;28;20253;-79
2023/10/25 17:29:31;;;;;;;8.60;7.70;;;;;;;9.79;81.45;98104.16;20982542;28;20306;-80
2023/10/25 17:39:33;;;;;;;11.10;6.73;;;;;;;9.41;83.41;98087.47;20989258;28;20222;-81
2023/10/25 17:49:36;;;;;;;7.83;7.03;;;;;;;9.70;81.53;98094.38;21068690;28;20227;-81
2023/10/25 17:59:38;;;;;;;8.00;6.70;;;;;;;9.73;81.99;98079.59;21075018;28;20257;-80
2023/10/25 18:09:41;;;;;;;9.43;7.03;;;;;;;9.91;81.19;98080.66;21059541;28;20230;-79
2023/10/25 18:19:45;;;;;;;9.85;6.40;;;;;;;9.84;81.60;98082.56;21064378;28;20289;-79
2023/10/25 18:29:49;;;;;;;10.83;7.93;;;;;;;10.05;79.99;98082.84;21068236;28;20537;-80
2023/10/25 18:39:51;;;;;;;11.47;8.93;;;;;;;9.91;81.39;98072.22;21048650;28;20707;-80
2023/10/25 18:49:55;;;;;;;10.13;8.23;;;;;;;10.09;80.62;98062.06;21051196;28;20227;-80
2023/10/25 18:59:57;;;;;;;9.30;8.40;;;;;;;10.14;80.54;98070.13;21051252;28;20207;-81
2023/10/25 19:10:00;;;;;;;8.80;7.90;;;;;;;9.54;84.01;98074.03;21068364;28;20187;-82
2023/10/25 19:20:02;;;;;;;8.80;7.90;;;;;;;10.18;80.58;98075.00;21054883;28;20628;-81
2023/10/25 19:30:08;;;;;;;11.37;8.03;;;;;;;10.06;80.62;98079.66;21059530;28;20201;-79
2023/10/25 19:40:10;;;;;;;9.40;7.70;;;;;;;10.04;81.52;98082.03;21051734;28;20331;-80
2023/10/25 19:50:15;;;;;;;8.97;7.77;;;;;;;9.69;82.73;98081.53;21025847;28;20389;-79
2023/10/25 20:00:17;;;;;;;9.67;8.03;;;;;;;9.84;81.93;98083.38;21041216;28;20252;-79
2023/10/25 20:10:37;;;;;;;10.30;8.52;;;;;;;9.88;82.53;98087.03;21081608;28;20202;-79
2023/10/25 20:20:42;;;;;;;10.75;9.18;;;;;;;9.75;83.16;98106.09;21060603;28;20304;-79
2023/10/25 20:30:46;;;;;;;10.00;8.47;;;;;;;10.07;81.32;98103.78;21045692;28;20202;-79
2023/10/25 20:40:47;;;;;;;9.30;7.65;;;;;;;10.12;81.13;98103.44;21034312;28;20233;-79
2023/10/25 20:50:57;;;;;;;8.00;6.82;;;;;;;10.04;81.05;98121.38;21018089;28;20222;-80
2023/10/25 21:00:59;;;;;;;8.25;6.82;;;;;;;9.49;83.05;98139.72;21053440;28;20675;-79
2023/10/25 21:11:02;;;;;;;9.40;8.18;;;;;;;9.83;83.01;98148.34;21039293;28;20864;-79
2023/10/25 21:21:05;;;;;;;10.57;9.10;;;;;;;9.01;85.54;98164.53;21051815;28;20218;-79
2023/10/25 21:31:09;;;;;;;13.25;9.25;;;;;;;9.69;82.42;98177.00;21068745;28;20199;-79
2023/10/25 21:41:12;;;;;;;15.20;12.00;;;;;;;9.96;81.70;98180.66;21048216;28;20262;-79
2023/10/25 21:51:15;;;;;;;19.60;13.07;;;;;;;9.76;83.24;98194.78;21065433;28;20241;-79
2023/10/25 22:01:17;;;;;;;23.93;14.27;;;;;;;9.41;83.74;98199.75;21080774;28;20210;-79
2023/10/25 22:11:20;;;;;;;17.67;12.70;;;;;;;9.28;84.80;98206.72;21068666;28;20263;-79
2023/10/25 22:21:23;;;;;;;18.40;12.33;;;;;;;9.98;81.27;98209.19;21076425;28;20317;-80
2023/10/25 22:31:26;;;;;;;13.37;10.23;;;;;;;9.47;82.58;98219.91;21055770;28;20237;-80
2023/10/25 22:41:28;;;;;;;13.35;9.95;;;;;;;9.61;81.91;98225.78;21054913;28;20233;-79
2023/10/25 22:51:31;;;;;;;20.90;15.27;;;;;;;9.04;85.40;98247.94;21073135;28;20538;-79
2023/10/25 23:01:34;;;;;;;21.27;14.35;;;;;;;9.36;83.60;98242.16;21091100;28;20292;-80
2023/10/25 23:11:37;;;;;;;20.80;14.70;;;;;;;9.44;83.95;98255.97;21073204;28;20242;-79
2023/10/25 23:21:38;;;;;;;23.47;14.97;;;;;;;9.29;83.58;98265.28;21058184;28;20222;-79
2023/10/25 23:31:42;;;;;;;21.70;15.27;;;;;;;9.58;82.13;98274.28;21053758;28;20230;-79
2023/10/25 23:41:44;;;;;;;28.13;17.52;;;;;;;9.32;83.09;98292.63;21038964;28;20317;-79
2023/10/25 23:51:47;;;;;;;22.53;14.40;;;;;;;9.24;83.30;98295.63;21045297;28;20519;-79
